createdAt,value
2023-12-17T00:02:09.475Z,3.50
2023-12-17T00:04:01.380Z,7.10
2023-12-17T00:05:52.761Z,6.10
2023-12-17T00:07:44.365Z,6.20
2023-12-17T00:09:35.633Z,5.70
2023-12-17T00:11:26.871Z,5.80
2023-12-17T00:13:18.894Z,5.80
2023-12-17T00:15:11.286Z,5.00
2023-12-17T00:17:03.133Z,7.60
2023-12-17T00:18:54.741Z,5.70
2023-12-17T00:20:46.208Z,5.20
2023-12-17T00:22:39.621Z,9.20
2023-12-17T00:24:31.549Z,4.10
2023-12-17T00:26:22.798Z,7.70
2023-12-17T00:28:13.965Z,8.40
2023-12-17T00:30:06.355Z,3.80
2023-12-17T00:32:00.965Z,5.10
2023-12-17T00:33:53.163Z,10.90
2023-12-17T00:35:45.114Z,6.70
2023-12-17T00:37:36.742Z,5.50
2023-12-17T00:39:28.419Z,4.70
2023-12-17T00:41:19.896Z,5.40
2023-12-17T00:43:11.616Z,5.50
2023-12-17T00:45:03.255Z,4.80
2023-12-17T00:46:54.712Z,8.50
2023-12-17T00:48:46.459Z,5.50
2023-12-17T00:50:37.930Z,4.90
2023-12-17T00:52:29.508Z,5.40
2023-12-17T00:54:21.041Z,5.60
2023-12-17T00:56:13.542Z,6.50
2023-12-17T00:58:04.816Z,6.40
2023-12-17T00:59:56.540Z,6.70
2023-12-17T01:01:48.386Z,7.60
2023-12-17T01:03:39.978Z,2.70
2023-12-17T01:05:34.499Z,7.80
2023-12-17T01:07:26.191Z,6.40
2023-12-17T01:09:18.336Z,7.90
2023-12-17T01:11:09.739Z,5.80
2023-12-17T01:13:01.407Z,4.60
2023-12-17T01:14:52.748Z,12.20
2023-12-17T01:16:44.487Z,6.30
2023-12-17T01:18:37.111Z,5.20
2023-12-17T01:20:28.845Z,4.50
2023-12-17T01:22:20.532Z,6.90
2023-12-17T01:24:12.185Z,4.40
2023-12-17T01:26:03.522Z,5.30
2023-12-17T01:27:55.215Z,4.00
2023-12-17T01:29:46.799Z,7.10
2023-12-17T01:31:38.598Z,3.90
2023-12-17T01:33:30.395Z,4.90
2023-12-17T01:35:21.876Z,6.50
2023-12-17T01:37:13.547Z,7.50
2023-12-17T01:39:05.464Z,6.60
2023-12-17T01:40:57.057Z,5.70
2023-12-17T01:42:48.875Z,5.50
2023-12-17T01:44:42.025Z,7.40
2023-12-17T01:46:33.714Z,3.80
2023-12-17T01:48:27.056Z,4.00
2023-12-17T01:50:18.787Z,7.30
2023-12-17T01:52:10.753Z,5.40
2023-12-17T01:54:02.119Z,4.00
2023-12-17T01:55:53.917Z,5.90
2023-12-17T01:57:45.101Z,7.40
2023-12-17T01:59:37.137Z,5.00
2023-12-17T02:01:29.335Z,6.40
2023-12-17T02:03:20.945Z,3.80
2023-12-17T02:05:12.720Z,4.80
2023-12-17T02:07:04.432Z,3.90
2023-12-17T02:08:56.305Z,5.80
2023-12-17T02:10:47.681Z,4.80
2023-12-17T02:12:39.266Z,6.50
2023-12-17T02:14:30.773Z,6.00
2023-12-17T02:16:22.617Z,3.10
2023-12-17T02:18:14.723Z,4.90
2023-12-17T02:20:06.884Z,5.80
2023-12-17T02:21:58.360Z,6.40
2023-12-17T02:23:50.067Z,7.30
2023-12-17T02:25:41.952Z,5.60
2023-12-17T02:27:33.228Z,5.60
2023-12-17T02:29:24.746Z,5.00
2023-12-17T02:31:16.105Z,5.30
2023-12-17T02:33:07.813Z,6.30
2023-12-17T02:34:59.287Z,3.40
2023-12-17T02:36:50.428Z,6.40
2023-12-17T02:38:42.185Z,4.40
2023-12-17T02:40:33.708Z,6.40
2023-12-17T02:42:25.051Z,6.70
2023-12-17T02:44:16.758Z,8.40
2023-12-17T02:46:08.273Z,7.00
2023-12-17T02:48:00.057Z,7.00
2023-12-17T02:49:51.706Z,7.00
2023-12-17T02:51:43.510Z,6.50
2023-12-17T02:53:34.849Z,5.00
2023-12-17T02:55:26.099Z,5.70
2023-12-17T02:57:17.844Z,5.70
2023-12-17T02:59:10.241Z,6.40
2023-12-17T03:02:53.245Z,5.70
2023-12-17T03:04:44.832Z,6.30
2023-12-17T03:06:37.373Z,5.00
2023-12-17T03:08:29.058Z,8.20
2023-12-17T03:10:20.329Z,4.60
2023-12-17T03:12:12.082Z,5.50
2023-12-17T03:14:03.932Z,5.20
2023-12-17T03:15:55.011Z,7.80
2023-12-17T03:17:46.300Z,5.80
2023-12-17T03:19:37.863Z,4.90
2023-12-17T03:21:29.628Z,6.70
2023-12-17T03:23:21.431Z,6.30
2023-12-17T03:25:12.584Z,4.10
2023-12-17T03:27:04.001Z,7.80
2023-12-17T03:28:55.496Z,7.60
2023-12-17T03:30:47.058Z,5.40
2023-12-17T03:32:38.770Z,5.60
2023-12-17T03:34:30.649Z,5.10
2023-12-17T03:36:22.561Z,5.60
2023-12-17T03:38:14.807Z,6.60
2023-12-17T03:40:06.897Z,4.70
2023-12-17T03:41:58.399Z,3.60
2023-12-17T03:43:54.779Z,7.50
2023-12-17T03:45:46.344Z,3.20
2023-12-17T03:47:42.011Z,7.20
2023-12-17T03:49:33.649Z,5.00
2023-12-17T03:51:25.261Z,8.00
2023-12-17T03:53:16.979Z,6.90
2023-12-17T03:55:09.162Z,7.80
2023-12-17T03:57:00.869Z,6.00
2023-12-17T03:58:52.290Z,6.20
2023-12-17T04:00:43.812Z,3.60
2023-12-17T04:02:36.890Z,5.70
2023-12-17T04:04:29.316Z,9.10
2023-12-17T04:06:20.550Z,8.10
2023-12-17T04:08:12.145Z,5.30
2023-12-17T04:10:04.613Z,6.30
2023-12-17T04:11:56.204Z,6.10
2023-12-17T04:13:47.868Z,6.90
2023-12-17T04:15:39.193Z,6.30
2023-12-17T04:17:31.842Z,6.90
2023-12-17T04:19:23.660Z,6.90
2023-12-17T04:21:15.275Z,3.20
2023-12-17T04:23:06.934Z,5.90
2023-12-17T04:24:58.826Z,6.30
2023-12-17T04:26:50.080Z,5.20
2023-12-17T04:28:41.744Z,6.40
2023-12-17T04:30:33.160Z,4.40
2023-12-17T04:32:24.717Z,5.60
2023-12-17T04:34:15.986Z,8.10
2023-12-17T04:36:08.280Z,5.10
2023-12-17T04:37:59.991Z,6.70
2023-12-17T04:39:51.219Z,5.40
2023-12-17T04:41:43.613Z,5.20
2023-12-17T04:43:35.382Z,8.10
2023-12-17T04:45:27.213Z,4.70
2023-12-17T04:47:18.647Z,5.50
2023-12-17T04:49:10.258Z,5.10
2023-12-17T04:51:02.097Z,5.50
2023-12-17T04:52:53.738Z,4.40
2023-12-17T04:54:45.354Z,5.80
2023-12-17T04:56:37.051Z,6.20
2023-12-17T04:58:29.349Z,7.20
2023-12-17T05:00:20.721Z,7.40
2023-12-17T05:02:12.593Z,5.90
2023-12-17T05:04:04.613Z,9.20
2023-12-17T05:05:56.303Z,9.40
2023-12-17T05:07:47.659Z,6.50
2023-12-17T05:09:39.302Z,4.60
2023-12-17T05:11:30.952Z,6.80
2023-12-17T05:13:22.293Z,8.50
2023-12-17T05:15:14.267Z,7.60
2023-12-17T05:17:05.587Z,5.40
2023-12-17T05:18:57.538Z,5.70
2023-12-17T05:20:49.822Z,10.10
2023-12-17T05:22:41.283Z,7.10
2023-12-17T05:24:32.501Z,6.50
2023-12-17T05:26:23.792Z,6.50
2023-12-17T05:28:15.298Z,6.80
2023-12-17T05:30:07.626Z,4.60
2023-12-17T05:31:59.162Z,5.90
2023-12-17T05:33:50.738Z,4.90
2023-12-17T05:35:43.565Z,2.90
2023-12-17T05:37:34.941Z,5.90
2023-12-17T05:39:26.725Z,7.60
2023-12-17T05:41:18.415Z,4.00
2023-12-17T05:43:09.829Z,8.90
2023-12-17T05:45:01.664Z,5.90
2023-12-17T05:46:53.179Z,4.50
2023-12-17T05:48:44.533Z,8.10
2023-12-17T05:50:36.199Z,9.30
2023-12-17T05:52:27.704Z,4.80
2023-12-17T05:54:19.615Z,4.80
2023-12-17T05:56:11.251Z,5.10
2023-12-17T05:58:02.583Z,9.50
2023-12-17T05:59:54.030Z,8.10
2023-12-17T06:01:45.618Z,8.20
2023-12-17T06:03:37.333Z,7.10
2023-12-17T06:05:29.193Z,6.70
2023-12-17T06:07:20.761Z,7.10
2023-12-17T06:09:12.724Z,7.20
2023-12-17T06:11:04.691Z,6.40
2023-12-17T06:12:55.971Z,7.70
2023-12-17T06:14:47.757Z,7.80
2023-12-17T06:16:43.274Z,9.20
2023-12-17T06:18:35.591Z,8.20
2023-12-17T06:20:29.536Z,8.90
2023-12-17T06:22:20.939Z,8.00
2023-12-17T06:24:12.340Z,8.30
2023-12-17T06:26:06.040Z,6.80
2023-12-17T06:27:58.027Z,4.90
2023-12-17T06:29:53.207Z,5.30
2023-12-17T06:31:44.814Z,4.40
2023-12-17T06:33:36.111Z,7.90
2023-12-17T06:35:27.921Z,9.90
2023-12-17T06:37:19.632Z,7.10
2023-12-17T06:39:12.011Z,8.10
2023-12-17T06:41:03.794Z,7.50
2023-12-17T06:42:55.390Z,5.60
2023-12-17T06:44:47.083Z,4.40
2023-12-17T06:46:38.931Z,6.90
2023-12-17T06:48:30.636Z,5.10
2023-12-17T06:50:22.192Z,3.70
2023-12-17T06:52:13.737Z,7.30
2023-12-17T06:54:05.407Z,7.30
2023-12-17T06:55:57.329Z,8.10
2023-12-17T06:57:49.474Z,6.50
2023-12-17T06:59:41.225Z,7.70
2023-12-17T07:01:33.123Z,6.70
2023-12-17T07:03:25.777Z,6.40
2023-12-17T07:05:17.863Z,9.70
2023-12-17T07:07:09.213Z,5.10
2023-12-17T07:09:00.510Z,6.80
2023-12-17T07:10:52.270Z,7.90
2023-12-17T07:12:43.705Z,6.10
2023-12-17T07:14:35.280Z,6.10
2023-12-17T07:16:29.362Z,5.30
2023-12-17T07:18:21.013Z,6.80
2023-12-17T07:20:12.691Z,7.70
2023-12-17T07:22:04.503Z,5.50
2023-12-17T07:23:57.576Z,5.60
2023-12-17T07:25:49.382Z,8.00
2023-12-17T07:27:40.876Z,5.00
2023-12-17T07:29:32.461Z,7.60
2023-12-17T07:31:24.065Z,8.50
2023-12-17T07:33:15.952Z,7.90
2023-12-17T07:35:08.533Z,8.30
2023-12-17T07:37:03.499Z,8.10
2023-12-17T07:38:55.048Z,6.80
2023-12-17T07:40:46.413Z,8.00
2023-12-17T07:42:37.826Z,6.50
2023-12-17T07:44:30.501Z,5.60
2023-12-17T07:46:21.778Z,7.70
2023-12-17T07:48:13.383Z,7.40
2023-12-17T07:50:06.479Z,7.70
2023-12-17T07:51:57.692Z,7.70
2023-12-17T07:53:49.595Z,7.50
2023-12-17T07:55:41.692Z,8.50
2023-12-17T07:57:34.506Z,5.90
2023-12-17T07:59:27.076Z,10.10
2023-12-17T08:01:20.729Z,7.40
2023-12-17T08:03:12.810Z,5.70
2023-12-17T08:05:07.378Z,7.40
2023-12-17T08:06:58.819Z,8.60
2023-12-17T08:08:50.331Z,6.50
2023-12-17T08:10:41.538Z,7.80
2023-12-17T08:12:32.832Z,7.10
2023-12-17T08:14:24.305Z,8.10
2023-12-17T08:16:15.653Z,7.70
2023-12-17T08:18:06.807Z,5.50
2023-12-17T08:19:58.817Z,6.30
2023-12-17T08:21:50.172Z,5.20
2023-12-17T08:23:42.545Z,6.80
2023-12-17T08:25:39.545Z,9.40
2023-12-17T08:27:31.186Z,7.10
2023-12-17T08:29:22.950Z,8.40
2023-12-17T08:31:14.570Z,5.40
2023-12-17T08:33:06.760Z,5.10
2023-12-17T08:34:59.919Z,7.00
2023-12-17T08:36:51.504Z,5.80
2023-12-17T08:38:47.022Z,4.80
2023-12-17T08:40:40.702Z,4.30
2023-12-17T08:42:32.105Z,4.80
2023-12-17T08:44:24.501Z,6.20
2023-12-17T08:46:15.617Z,8.30
2023-12-17T08:48:07.077Z,8.20
2023-12-17T08:50:01.287Z,5.40
2023-12-17T08:51:52.876Z,5.40
2023-12-17T08:53:44.665Z,5.60
2023-12-17T08:55:36.087Z,6.90
2023-12-17T08:57:28.036Z,5.10
2023-12-17T08:59:19.601Z,3.40
2023-12-17T09:01:11.634Z,7.00
2023-12-17T09:03:03.713Z,7.70
2023-12-17T09:04:55.490Z,5.70
2023-12-17T09:06:48.525Z,4.90
2023-12-17T09:08:39.771Z,9.50
2023-12-17T09:10:31.508Z,4.20
2023-12-17T09:12:23.869Z,5.20
2023-12-17T09:14:15.657Z,9.40
2023-12-17T09:16:08.287Z,6.00
2023-12-17T09:17:59.926Z,6.50
2023-12-17T09:19:51.411Z,6.10
2023-12-17T09:21:42.828Z,3.30
2023-12-17T09:23:33.994Z,5.60
2023-12-17T09:25:25.311Z,7.70
2023-12-17T09:27:17.132Z,5.70
2023-12-17T09:29:08.752Z,4.60
2023-12-17T09:31:02.490Z,8.30
2023-12-17T09:32:53.936Z,5.90
2023-12-17T09:34:45.364Z,6.40
2023-12-17T09:36:36.943Z,6.20
2023-12-17T09:38:28.705Z,3.90
2023-12-17T09:40:20.187Z,6.10
2023-12-17T09:42:12.193Z,7.40
2023-12-17T09:44:07.053Z,6.30
2023-12-17T09:45:58.465Z,8.70
2023-12-17T09:47:50.335Z,9.00
2023-12-17T09:49:42.161Z,7.00
2023-12-17T09:51:37.714Z,7.00
2023-12-17T09:53:32.490Z,3.00
2023-12-17T09:55:23.999Z,6.70
2023-12-17T09:57:17.293Z,6.30
2023-12-17T09:59:09.070Z,8.30
2023-12-17T10:01:00.407Z,5.70
2023-12-17T10:02:52.306Z,7.80
2023-12-17T10:04:46.424Z,7.70
2023-12-17T10:06:38.768Z,6.60
2023-12-17T10:08:30.266Z,7.00
2023-12-17T10:10:21.961Z,7.40
2023-12-17T10:12:16.037Z,5.30
2023-12-17T10:14:20.924Z,7.50
2023-12-17T10:16:12.268Z,7.70
2023-12-17T10:18:04.750Z,6.50
2023-12-17T10:19:56.684Z,3.30
2023-12-17T10:21:48.868Z,4.60
2023-12-17T10:23:47.896Z,7.30
2023-12-17T10:25:43.573Z,6.10
2023-12-17T10:27:35.122Z,6.00
2023-12-17T10:29:27.113Z,5.70
2023-12-17T10:31:19.152Z,6.00
2023-12-17T10:33:14.884Z,6.80
2023-12-17T10:35:07.175Z,5.10
2023-12-17T10:36:59.114Z,7.50
2023-12-17T10:38:53.444Z,4.20
2023-12-17T10:40:45.043Z,6.10
2023-12-17T10:42:36.769Z,5.90
2023-12-17T10:44:29.482Z,5.70
2023-12-17T10:48:14.908Z,2.70
2023-12-17T10:50:07.161Z,4.90
2023-12-17T10:52:00.460Z,6.20
2023-12-17T10:53:52.081Z,4.40
2023-12-17T10:55:43.726Z,10.10
2023-12-17T10:57:36.299Z,3.50
2023-12-17T10:59:38.141Z,4.20
2023-12-17T11:01:33.523Z,3.80
2023-12-17T11:03:26.395Z,4.60
2023-12-17T11:05:17.850Z,3.60
2023-12-17T11:07:11.058Z,2.60
2023-12-17T11:09:05.488Z,2.50
2023-12-17T11:10:57.185Z,3.60
2023-12-17T11:12:49.175Z,4.00
2023-12-17T11:14:45.408Z,3.70
2023-12-17T11:16:36.801Z,4.30
2023-12-17T11:18:43.289Z,2.50
2023-12-17T11:20:41.655Z,3.10
2023-12-17T11:22:37.814Z,4.10
2023-12-17T11:24:31.805Z,3.70
2023-12-17T11:26:23.615Z,4.80
2023-12-17T11:28:27.925Z,4.00
2023-12-17T11:30:29.718Z,4.00
2023-12-17T11:32:22.966Z,5.90
2023-12-17T11:34:14.791Z,3.50
2023-12-17T11:36:09.966Z,4.50
2023-12-17T11:38:03.984Z,5.90
2023-12-17T11:39:55.822Z,5.70
2023-12-17T11:41:47.469Z,4.60
2023-12-17T11:43:38.567Z,5.00
2023-12-17T11:45:37.258Z,4.60
2023-12-17T11:47:28.996Z,4.70
2023-12-17T11:49:25.532Z,4.50
2023-12-17T11:51:25.894Z,4.30
2023-12-17T11:53:18.703Z,3.70
2023-12-17T11:55:10.319Z,4.80
2023-12-17T11:57:02.768Z,4.10
2023-12-17T11:58:54.526Z,3.10
2023-12-17T12:01:09.653Z,6.80
2023-12-17T12:03:01.676Z,5.00
2023-12-17T12:04:55.533Z,5.50
2023-12-17T12:06:46.750Z,5.00
2023-12-17T12:08:47.025Z,9.10
2023-12-17T12:10:48.707Z,9.50
2023-12-17T12:12:40.102Z,6.20
2023-12-17T12:14:31.692Z,4.90
2023-12-17T12:16:24.008Z,8.80
2023-12-17T12:18:22.597Z,10.20
2023-12-17T12:20:14.981Z,6.10
2023-12-17T12:22:06.647Z,7.60
2023-12-17T12:23:58.646Z,6.30
2023-12-17T12:25:50.488Z,5.10
2023-12-17T12:27:42.349Z,6.10
2023-12-17T12:29:38.262Z,9.60
2023-12-17T12:31:30.753Z,6.10
2023-12-17T12:33:22.117Z,5.30
2023-12-17T12:35:24.594Z,8.90
2023-12-17T12:37:15.916Z,6.90
2023-12-17T12:39:08.426Z,11.90
2023-12-17T12:41:10.114Z,9.90
2023-12-17T12:43:03.077Z,8.70
2023-12-17T12:44:54.471Z,8.50
2023-12-17T12:46:51.070Z,8.70
2023-12-17T12:48:42.703Z,8.90
2023-12-17T12:50:34.216Z,8.50
2023-12-17T12:52:25.975Z,7.90
2023-12-17T12:54:18.820Z,7.40
2023-12-17T12:56:10.471Z,7.00
2023-12-17T12:58:01.917Z,7.80
2023-12-17T12:59:53.558Z,8.00
2023-12-17T13:01:45.093Z,10.10
2023-12-17T13:03:37.323Z,8.50
2023-12-17T13:05:28.976Z,9.20
2023-12-17T13:07:20.708Z,13.70
2023-12-17T13:09:12.765Z,13.60
2023-12-17T13:11:04.510Z,8.30
2023-12-17T13:12:56.176Z,6.60
2023-12-17T13:14:48.050Z,9.70
2023-12-17T13:16:39.617Z,6.20
2023-12-17T13:18:30.878Z,13.20
2023-12-17T13:20:22.671Z,13.80
2023-12-17T13:22:14.534Z,12.90
2023-12-17T13:24:06.990Z,16.40
2023-12-17T13:26:04.246Z,11.20
2023-12-17T13:28:02.086Z,12.60
2023-12-17T13:29:53.850Z,14.60
2023-12-17T13:31:45.342Z,9.50
2023-12-17T13:33:36.975Z,16.80
2023-12-17T13:35:28.750Z,16.00
2023-12-17T13:37:20.072Z,15.80
2023-12-17T13:39:11.353Z,16.60
2023-12-17T13:41:03.620Z,11.40
2023-12-17T13:42:56.012Z,16.40
2023-12-17T13:44:47.803Z,25.50
2023-12-17T13:46:39.276Z,22.00
2023-12-17T13:48:33.714Z,16.10
2023-12-17T13:50:26.211Z,18.20
2023-12-17T13:52:17.853Z,14.30
2023-12-17T13:54:10.153Z,15.00
2023-12-17T13:56:02.096Z,12.10
2023-12-17T13:57:54.070Z,15.00
2023-12-17T13:59:48.479Z,10.70
2023-12-17T14:01:40.437Z,7.50
2023-12-17T14:03:31.860Z,12.20
2023-12-17T14:05:23.672Z,9.10
2023-12-17T14:07:15.383Z,20.90
2023-12-17T14:09:06.967Z,20.60
2023-12-17T14:10:58.627Z,20.60
2023-12-17T14:12:50.454Z,14.30
2023-12-17T14:14:43.328Z,22.40
2023-12-17T14:16:38.222Z,70.20
2023-12-17T14:18:30.015Z,39.80
2023-12-17T14:20:25.525Z,27.20
2023-12-17T14:22:18.789Z,29.00
2023-12-17T14:24:10.627Z,27.90
2023-12-17T14:26:02.482Z,19.00
2023-12-17T14:27:53.755Z,12.70
2023-12-17T14:29:45.441Z,10.50
2023-12-17T14:31:37.147Z,12.10
2023-12-17T14:33:28.744Z,12.90
2023-12-17T14:35:20.462Z,13.60
2023-12-17T14:37:12.157Z,14.80
2023-12-17T14:39:04.348Z,15.00
2023-12-17T14:40:56.093Z,12.00
2023-12-17T14:42:47.967Z,16.20
2023-12-17T14:44:39.479Z,11.90
2023-12-17T14:46:30.505Z,11.30
2023-12-17T14:48:22.342Z,12.20
2023-12-17T14:50:14.021Z,16.00
2023-12-17T14:52:05.691Z,10.70
2023-12-17T14:53:59.242Z,16.60
2023-12-17T14:55:51.338Z,12.70
2023-12-17T14:57:43.308Z,13.50
2023-12-17T14:59:37.929Z,18.30
2023-12-17T15:01:34.983Z,16.30
2023-12-17T15:03:29.170Z,21.20
2023-12-17T15:05:20.899Z,24.00
2023-12-17T15:07:15.155Z,31.20
2023-12-17T15:09:06.527Z,24.30
2023-12-17T15:10:58.005Z,23.50
2023-12-17T15:12:49.396Z,29.00
2023-12-17T15:14:41.766Z,25.30
2023-12-17T15:16:33.395Z,33.00
2023-12-17T15:18:24.905Z,33.90
2023-12-17T15:20:16.688Z,31.10
2023-12-17T15:22:08.480Z,30.60
2023-12-17T15:24:00.237Z,29.80
2023-12-17T15:25:51.885Z,35.90
2023-12-17T15:27:43.558Z,38.30
2023-12-17T15:29:35.524Z,30.70
2023-12-17T15:31:27.221Z,33.80
2023-12-17T15:33:18.875Z,28.90
2023-12-17T15:35:12.307Z,33.60
2023-12-17T15:37:04.188Z,26.70
2023-12-17T15:38:55.857Z,30.50
2023-12-17T15:40:47.449Z,30.80
2023-12-17T15:42:38.765Z,29.30
2023-12-17T15:44:30.084Z,28.10
2023-12-17T15:46:27.751Z,41.10
2023-12-17T15:48:19.242Z,50.00
2023-12-17T15:50:11.258Z,56.70
2023-12-17T15:52:03.905Z,53.00
2023-12-17T15:53:55.564Z,32.80
2023-12-17T15:55:47.097Z,37.40
2023-12-17T15:57:38.821Z,36.00
2023-12-17T15:59:30.534Z,40.50
2023-12-17T16:01:22.410Z,40.10
2023-12-17T16:03:13.941Z,38.50
2023-12-17T16:05:06.228Z,33.10
2023-12-17T16:06:57.532Z,34.70
2023-12-17T16:08:49.285Z,31.90
2023-12-17T16:10:41.019Z,32.80
2023-12-17T16:12:32.727Z,35.20
2023-12-17T16:14:24.367Z,35.80
2023-12-17T16:16:25.418Z,32.00
2023-12-17T16:18:17.060Z,38.10
2023-12-17T16:20:09.479Z,36.50
2023-12-17T16:22:00.781Z,41.20
2023-12-17T16:23:52.818Z,40.70
2023-12-17T16:25:45.645Z,39.30
2023-12-17T16:27:36.844Z,41.30
2023-12-17T16:29:28.721Z,40.60
2023-12-17T16:31:19.991Z,40.60
2023-12-17T16:33:14.749Z,75.00
2023-12-17T16:35:09.878Z,59.90
2023-12-17T16:37:02.059Z,57.40
2023-12-17T16:38:57.568Z,44.30
2023-12-17T16:40:49.486Z,50.00
2023-12-17T16:42:40.952Z,38.20
2023-12-17T16:44:32.707Z,44.60
2023-12-17T16:46:23.905Z,45.20
2023-12-17T16:48:16.984Z,37.20
2023-12-17T16:50:09.317Z,34.70
2023-12-17T16:52:01.006Z,34.60
2023-12-17T16:53:52.903Z,42.70
2023-12-17T16:55:44.892Z,40.40
2023-12-17T16:57:36.196Z,43.40
2023-12-17T16:59:29.032Z,42.10
2023-12-17T17:01:20.628Z,50.20
2023-12-17T17:03:12.650Z,55.50
2023-12-17T17:05:04.592Z,61.80
2023-12-17T17:06:57.065Z,67.30
2023-12-17T17:08:48.951Z,81.10
2023-12-17T17:10:40.236Z,82.20
2023-12-17T17:12:31.975Z,98.20
2023-12-17T17:14:23.654Z,85.20
2023-12-17T17:16:15.213Z,81.40
2023-12-17T17:18:06.709Z,79.00
2023-12-17T17:19:58.931Z,63.20
2023-12-17T17:21:50.648Z,63.80
2023-12-17T17:23:42.423Z,63.30
2023-12-17T17:25:34.538Z,59.90
2023-12-17T17:27:26.947Z,58.40
2023-12-17T17:29:19.758Z,56.40
2023-12-17T17:31:14.434Z,54.80
2023-12-17T17:33:06.508Z,55.30
2023-12-17T17:34:57.975Z,46.80
2023-12-17T17:36:50.233Z,41.90
2023-12-17T17:38:42.213Z,52.10
2023-12-17T17:40:33.567Z,51.90
2023-12-17T17:42:25.117Z,40.40
2023-12-17T17:44:16.665Z,42.50
2023-12-17T17:46:09.946Z,49.50
2023-12-17T17:48:01.733Z,40.30
2023-12-17T17:49:53.443Z,44.50
2023-12-17T17:51:44.693Z,40.30
2023-12-17T17:53:37.009Z,48.10
2023-12-17T17:55:29.633Z,41.50
2023-12-17T17:57:21.297Z,41.30
2023-12-17T17:59:12.988Z,45.10
2023-12-17T18:01:04.766Z,46.70
2023-12-17T18:02:58.673Z,56.10
2023-12-17T18:04:50.683Z,57.50
2023-12-17T18:06:42.571Z,54.30
2023-12-17T18:08:34.022Z,53.20
2023-12-17T18:10:25.447Z,52.10
2023-12-17T18:12:16.960Z,53.40
2023-12-17T18:14:08.637Z,57.80
2023-12-17T18:16:00.396Z,57.80
2023-12-17T18:17:52.037Z,58.10
2023-12-17T18:19:45.344Z,60.00
2023-12-17T18:21:38.961Z,59.30
2023-12-17T18:23:30.440Z,68.30
2023-12-17T18:25:21.858Z,62.70
2023-12-17T18:27:13.745Z,65.60
2023-12-17T18:29:05.218Z,67.60
2023-12-17T18:30:57.026Z,55.50
2023-12-17T18:32:48.600Z,51.50
2023-12-17T18:34:40.312Z,50.40
2023-12-17T18:36:32.863Z,41.00
2023-12-17T18:38:24.460Z,41.20
2023-12-17T18:40:16.309Z,42.50
2023-12-17T18:42:08.011Z,29.50
2023-12-17T18:43:59.471Z,30.50
2023-12-17T18:45:51.178Z,34.20
2023-12-17T18:47:42.695Z,26.30
2023-12-17T18:49:38.117Z,27.30
2023-12-17T18:51:29.731Z,23.60
2023-12-17T18:53:21.332Z,23.30
2023-12-17T18:55:13.037Z,21.10
2023-12-17T18:57:04.814Z,21.00
2023-12-17T18:58:56.465Z,25.70
2023-12-17T19:00:48.052Z,19.00
2023-12-17T19:02:40.051Z,17.40
2023-12-17T19:04:31.582Z,16.90
2023-12-17T19:06:23.378Z,19.00
2023-12-17T19:08:14.991Z,15.40
2023-12-17T19:10:07.195Z,14.30
2023-12-17T19:11:58.778Z,11.90
2023-12-17T19:13:50.138Z,12.00
2023-12-17T19:15:44.155Z,32.20
2023-12-17T19:17:36.162Z,13.10
2023-12-17T19:19:28.680Z,14.40
2023-12-17T19:21:20.379Z,19.70
2023-12-17T19:23:11.984Z,14.70
2023-12-17T19:25:03.340Z,12.80
2023-12-17T19:26:56.333Z,14.30
2023-12-17T19:30:39.456Z,9.90
2023-12-17T19:32:31.213Z,17.20
2023-12-17T19:34:22.948Z,19.20
2023-12-17T19:36:14.534Z,19.00
2023-12-17T19:38:05.888Z,18.70
2023-12-17T19:39:59.193Z,20.50
2023-12-17T19:41:52.556Z,21.10
2023-12-17T19:43:44.604Z,20.70
2023-12-17T19:45:36.127Z,21.60
2023-12-17T19:47:28.161Z,22.20
2023-12-17T19:49:19.847Z,21.80
2023-12-17T19:51:15.442Z,20.90
2023-12-17T19:53:07.138Z,12.70
2023-12-17T19:54:59.091Z,19.20
2023-12-17T19:56:50.792Z,19.00
2023-12-17T19:58:45.016Z,22.10
2023-12-17T20:00:37.696Z,24.80
2023-12-17T20:02:29.254Z,28.90
2023-12-17T20:04:20.817Z,32.50
2023-12-17T20:06:12.916Z,23.30
2023-12-17T20:08:05.057Z,26.90
2023-12-17T20:09:56.547Z,25.10
2023-12-17T20:11:48.445Z,17.50
2023-12-17T20:13:39.997Z,17.40
2023-12-17T20:15:31.583Z,22.10
2023-12-17T20:17:22.989Z,28.10
2023-12-17T20:19:15.016Z,19.70
2023-12-17T20:21:06.370Z,19.00
2023-12-17T20:22:58.128Z,17.90
2023-12-17T20:24:49.941Z,19.70
2023-12-17T20:26:41.382Z,17.10
2023-12-17T20:28:33.527Z,15.60
2023-12-17T20:30:25.110Z,16.00
2023-12-17T20:32:16.431Z,13.20
2023-12-17T20:34:09.250Z,13.40
2023-12-17T20:36:01.827Z,8.70
2023-12-17T20:37:54.356Z,12.80
2023-12-17T20:39:46.177Z,17.80
2023-12-17T20:41:37.274Z,13.00
2023-12-17T20:43:28.361Z,10.20
2023-12-17T20:45:20.002Z,11.30
2023-12-17T20:47:11.970Z,11.20
2023-12-17T20:49:03.979Z,14.00
2023-12-17T20:50:56.145Z,12.10
2023-12-17T20:52:47.478Z,21.50
2023-12-17T20:54:38.646Z,12.60
2023-12-17T20:56:30.286Z,13.70
2023-12-17T20:58:24.121Z,13.40
2023-12-17T21:00:16.351Z,14.80
2023-12-17T21:02:07.663Z,14.20
2023-12-17T21:03:59.572Z,11.80
2023-12-17T21:05:51.286Z,11.50
2023-12-17T21:07:46.935Z,11.60
2023-12-17T21:09:38.659Z,12.50
2023-12-17T21:11:30.176Z,11.40
2023-12-17T21:13:21.746Z,9.80
2023-12-17T21:15:13.648Z,9.70
2023-12-17T21:17:05.397Z,12.20
2023-12-17T21:18:57.292Z,14.30
2023-12-17T21:20:48.749Z,15.40
2023-12-17T21:22:40.743Z,15.40
2023-12-17T21:24:32.947Z,14.70
2023-12-17T21:26:25.399Z,15.60
2023-12-17T21:28:16.698Z,9.40
2023-12-17T21:30:08.689Z,12.50
2023-12-17T21:32:00.263Z,14.70
2023-12-17T21:33:51.956Z,7.50
2023-12-17T21:35:43.693Z,11.70
2023-12-17T21:37:35.317Z,10.00
2023-12-17T21:39:27.031Z,15.10
2023-12-17T21:41:19.630Z,17.10
2023-12-17T21:43:11.689Z,19.20
2023-12-17T21:45:03.706Z,15.00
2023-12-17T21:46:55.568Z,18.00
2023-12-17T21:48:47.598Z,16.30
2023-12-17T21:50:39.404Z,14.70
2023-12-17T21:52:33.045Z,14.30
2023-12-17T21:54:25.024Z,21.80
2023-12-17T21:56:16.710Z,22.60
2023-12-17T21:58:10.010Z,19.30
2023-12-17T22:00:01.663Z,20.30
2023-12-17T22:01:53.853Z,16.40
2023-12-17T22:03:45.148Z,17.20
2023-12-17T22:05:37.496Z,16.10
2023-12-17T22:07:29.163Z,15.50
2023-12-17T22:09:20.668Z,10.90
2023-12-17T22:11:12.194Z,11.60
2023-12-17T22:13:03.924Z,10.70
2023-12-17T22:14:55.815Z,9.90
2023-12-17T22:16:47.528Z,11.50
2023-12-17T22:18:39.312Z,8.90
2023-12-17T22:20:31.734Z,10.70
2023-12-17T22:22:24.130Z,9.50
2023-12-17T22:24:15.644Z,10.00
2023-12-17T22:26:07.306Z,8.50
2023-12-17T22:27:58.842Z,10.50
2023-12-17T22:29:50.509Z,13.60
2023-12-17T22:31:42.138Z,12.00
2023-12-17T22:33:33.901Z,13.10
2023-12-17T22:35:26.145Z,18.10
2023-12-17T22:37:17.912Z,11.40
2023-12-17T22:39:09.517Z,12.60
2023-12-17T22:41:00.787Z,11.80
2023-12-17T22:42:52.509Z,16.40
2023-12-17T22:44:49.209Z,13.70
2023-12-17T22:46:41.841Z,11.60
2023-12-17T22:48:33.596Z,19.40
2023-12-17T22:50:25.392Z,14.30
2023-12-17T22:52:17.147Z,14.50
2023-12-17T22:54:08.427Z,14.50
2023-12-17T22:56:00.011Z,12.50
2023-12-17T22:57:51.299Z,13.30
2023-12-17T22:59:43.440Z,9.60
2023-12-17T23:01:35.261Z,14.40
2023-12-17T23:03:27.105Z,12.70
2023-12-17T23:05:19.616Z,12.90
2023-12-17T23:07:10.921Z,14.00
2023-12-17T23:09:02.172Z,13.50
2023-12-17T23:10:53.810Z,13.30
2023-12-17T23:12:45.606Z,12.80
2023-12-17T23:14:37.216Z,10.90
2023-12-17T23:16:28.833Z,11.10
2023-12-17T23:18:21.016Z,12.00
2023-12-17T23:20:12.998Z,10.00
2023-12-17T23:22:05.228Z,11.70
2023-12-17T23:23:56.861Z,12.00
2023-12-17T23:25:48.713Z,13.10
2023-12-17T23:27:42.140Z,16.40
2023-12-17T23:29:33.880Z,13.60
2023-12-17T23:31:24.968Z,14.40
2023-12-17T23:33:16.919Z,13.00
2023-12-17T23:35:08.602Z,13.90
2023-12-17T23:37:00.353Z,12.90
2023-12-17T23:38:51.616Z,12.60
2023-12-17T23:40:42.957Z,12.40
2023-12-17T23:42:34.270Z,12.60
2023-12-17T23:44:25.981Z,14.40
2023-12-17T23:46:18.511Z,13.50
2023-12-17T23:48:10.209Z,16.70
2023-12-17T23:50:01.696Z,22.50
2023-12-17T23:51:53.297Z,21.40
2023-12-17T23:53:44.947Z,17.30
2023-12-17T23:55:36.613Z,16.00
2023-12-17T23:57:27.739Z,20.20
2023-12-17T23:59:18.976Z,23.30
